Share

Gillette, WY

Gillette-Campbell County (KGCC) Elev 4364 ft | 44.34 °N, 105.54 °W | Change Station

Current weather conditions updated 16 minutes ago

Partly Cloudy
Partly Cloudy
47 °F
Feels Like 47 °F
N
13
Wind Variable Wind from SSE
Sunrise 6:15 AM
Sunset 7:50 PM
Moon Waning Gibbous

Tomorrow is forecast to be Much Warmer than today.

Pressure 29.84 in
Visibility 10.0 miles
Clouds Few 12000 ft
Dew Point 36 °F
Humidity 66%
Rainfall 0.00 in
Snow Depth Not available.
UV 0 out of 16
Pollen 8.40 out of 12
Air Quality Not available.
Flu Activity Sporadic
METAR KGCC 180453Z AUTO 15011KT 10SM FEW120 08/02 A2986 RMK AO2 SLP104 T00830022

More Conditions Fewer Conditions

Pressure 29.84 in
Visibility 10.0 miles
Clouds Few 12000 ft
Dew Point 36 °F
Humidity 66%
Rainfall 0.00 in
Snow Depth Not available.
UV 0 out of 16
Pollen 8.40 out of 12
Air Quality Not available.
Flu Activity Sporadic
METAR KGCC 180453Z AUTO 15011KT 10SM FEW120 08/02 A2986 RMK AO2 SLP104 T00830022

More Conditions Fewer Conditions

10-Day Forecast

Almanac

Astronomy

Apr. 17, 2014 Rise Set
Actual Time 6:15 AM MDT 7:50 PM MDT
Civil Twilight 5:44 AM MDT 8:20 PM MDT
Nautical Twilight 5:07 AM MDT 8:58 PM MDT
Astronomical Twilight 4:27 AM MDT 9:38 PM MDT
Moon 10:43 PM MDT (4/17) 7:44 AM MDT (4/17)
Length of Visible Light 14h 36m
Length of Day
13h 34m
Tomorrow will be 2m 56s longer.
Waning Gibbous, 90% of the Moon is Illuminated
Apr 18
Waning Gibbous
Apr 22
Last Quarter
Apr 29
New
May 6
First Quarter
May 14
Full

Yesterday's Extremes

State Highs State Lows

Community

  • SUNRISE THROUGH THE TREES.
    SUNRISE THROUGH THE TREES.
  • Dog Wood Blossoms
    Dog Wood Blossoms
  • Morning Light
    Morning Light
  • New Day
    New Day
  • Lake Michigan Sunrise
    Lake Michigan Sunrise

WunderPhotos

Upload Photos

1,702,261 photos uploaded!

WunderBlogs® & News

Nearby

Snow Depth

Station Depth Elevation
Casper Mountain 53 in 7850 ft
Reno Hill 59 in 8500 ft
Laprele Creek 28 in 8375 ft
Windy Peak 27 in 7900 ft
Beartooth Lake 98 in 9275 ft

Coastal Water Temperatures

Place Temperature
No Stations Reporting

Earthquake Activity

City Distance Mag. Time & Date
No recent earthquake activity has been reported nearby.
Minimum magnitude displayed is 2.5.

Nearby Weather Stations

Station Location Temp. Windchill Dew Point Humidity Wind Precip. Elev Updated Type
RAWS ECHETA WY, Gillette, WY 50 °F 46 °F 33 °F 52% SSE  at  11 mph 0.00 in / hr 4396 ft 9:51 PM MDT MADIS
(North Gillette), Gillette, WY 47.4 °F 47 °F 37 °F 67% SE  at  0.0 mph 0.00 in / hr 4642 ft 11:09 PM MDT Rapid Fire

Show More Stations Show Fewer Stations

What do you think?

We're not finished. Please let us know what you like, what you don't like, and what you are still missing.